aviador You're here:

KESC Decoded Metar

ESCANABA in MI, USA
Report Time2017-11-24 02:56:00
UTC Time2017-11-24 03:50:23
Flight Rules vfr VFR
Wind220° at 10 Gusting to 16 kt
W.Decomp.*RWY 18: 7.3 kt HW 6.8 kt RCW
RWY 27: 6.8 kt HW 7.3 kt LCW
W.Rank220° ranks 21
Current wind is above 220° avg. (6.9)
Visibility9999 m
Phenomena:N/A
Clouds:Overcast 080 Hf
Expected CloudBase > 2,400 ft AGL from Temp-Dew spread
Ceiling8,000 ft
Temp03°C (ISA -11)
Dew Point-3°C (65% RH)
AAT-3.0°C
QNH1008 hPa
Density Alt-453 ft
Elevation614 ft
Report Wrong Elevation
Raw Report
KESC 240256Z AUTO 22010G16KT 10SM OVC080 03/M03 A2977 RMK AO2
SLP106 T00331033 58024=

Extra information for KESC:More info

Metar Taf Metar & Taf Last 4 Metars F.Rules Stats Wind Profile Meteogram Temp Stats Airport Information Weather charts Add Link Nearby VenuesMetar ALERT Operation Metar Decoded Social comments

AIRNAV info for KESC